Fasa, Iran
Current Conditions -  °F | °C
As of 10:30 PM on Tuesday 27 Jan 2015 (Local Time) from OISS Reporting Station
Clear Clear  
Wind Chill: 54°   Ceiling: Unl
Heat Index: 54°   Visibility: 6mi
Dew Point:   Wind: 7mph
Humidity: 14%   Direction: 280°W
Pressure: 30.18"   Gusts: NA
Location:  28.97°N, 53.68°E
Report Text: OISS 271830Z 28006KT CAVOK 12/M15 Q1022 A3021
Loading
Personal Weather Stations






























Interactive Weather Map New forecast layout! Learn more

10-Day Weather Forecast

Advertisements
Track Severe Weather on mobile